sensor_id;sensor_type;location;lat;lon;timestamp;pressure;altitude;pressure_sealevel;temperature;humidity
69879;BME280;57161;43.136;24.706;2023-10-13T00:02:02;99631.56;;;12.43;74.81
69879;BME280;57161;43.136;24.706;2023-10-13T00:04:30;99630.63;;;12.40;74.90
69879;BME280;57161;43.136;24.706;2023-10-13T00:06:58;99618.38;;;12.30;74.98
69879;BME280;57161;43.136;24.706;2023-10-13T00:09:25;99617.97;;;12.26;75.19
69879;BME280;57161;43.136;24.706;2023-10-13T00:11:54;99615.50;;;12.22;75.33
69879;BME280;57161;43.136;24.706;2023-10-13T00:14:21;99605.31;;;12.12;75.67
69879;BME280;57161;43.136;24.706;2023-10-13T00:16:48;99596.16;;;12.11;75.59
69879;BME280;57161;43.136;24.706;2023-10-13T00:19:48;99604.56;;;12.11;75.88
69879;BME280;57161;43.136;24.706;2023-10-13T00:22:17;99608.41;;;12.21;75.61
69879;BME280;57161;43.136;24.706;2023-10-13T00:24:47;99604.97;;;12.15;75.94
69879;BME280;57161;43.136;24.706;2023-10-13T00:27:19;99598.75;;;12.09;75.90
69879;BME280;57161;43.136;24.706;2023-10-13T00:29:57;99602.56;;;12.19;76.01
69879;BME280;57161;43.136;24.706;2023-10-13T00:32:46;99596.22;;;12.19;76.05
69879;BME280;57161;43.136;24.706;2023-10-13T00:35:17;99598.81;;;12.17;75.87
69879;BME280;57161;43.136;24.706;2023-10-13T00:37:55;99606.66;;;12.18;75.67
69879;BME280;57161;43.136;24.706;2023-10-13T00:40:23;99605.50;;;12.14;76.12
69879;BME280;57161;43.136;24.706;2023-10-13T00:42:58;99608.53;;;12.16;76.15
69879;BME280;57161;43.136;24.706;2023-10-13T00:45:43;99611.13;;;12.14;76.09
69879;BME280;57161;43.136;24.706;2023-10-13T00:48:10;99599.56;;;11.96;76.08
69879;BME280;57161;43.136;24.706;2023-10-13T00:50:38;99598.13;;;12.03;75.98
69879;BME280;57161;43.136;24.706;2023-10-13T00:53:04;99597.09;;;11.93;76.34
69879;BME280;57161;43.136;24.706;2023-10-13T00:55:30;99611.91;;;12.01;76.36
69879;BME280;57161;43.136;24.706;2023-10-13T00:57:59;99610.06;;;12.03;76.16
69879;BME280;57161;43.136;24.706;2023-10-13T01:00:29;99606.66;;;11.97;75.99
69879;BME280;57161;43.136;24.706;2023-10-13T01:02:55;99607.94;;;11.96;76.11
69879;BME280;57161;43.136;24.706;2023-10-13T01:05:30;99604.53;;;11.90;76.36
69879;BME280;57161;43.136;24.706;2023-10-13T01:08:00;99605.09;;;11.89;76.32
69879;BME280;57161;43.136;24.706;2023-10-13T01:10:27;99613.69;;;11.91;76.34
69879;BME280;57161;43.136;24.706;2023-10-13T01:12:54;99604.34;;;11.75;76.77
69879;BME280;57161;43.136;24.706;2023-10-13T01:15:20;99617.44;;;11.93;76.35
69879;BME280;57161;43.136;24.706;2023-10-13T01:17:54;99618.53;;;11.90;76.15
69879;BME280;57161;43.136;24.706;2023-10-13T01:20:34;99610.91;;;11.78;76.94
69879;BME280;57161;43.136;24.706;2023-10-13T01:23:11;99596.78;;;11.70;76.63
69879;BME280;57161;43.136;24.706;2023-10-13T01:25:44;99609.19;;;11.75;76.73
69879;BME280;57161;43.136;24.706;2023-10-13T01:28:10;99612.50;;;11.86;76.35
69879;BME280;57161;43.136;24.706;2023-10-13T01:30:36;99627.38;;;11.81;76.55
69879;BME280;57161;43.136;24.706;2023-10-13T01:33:04;99622.09;;;11.78;76.56
69879;BME280;57161;43.136;24.706;2023-10-13T01:35:29;99626.72;;;11.75;76.85
69879;BME280;57161;43.136;24.706;2023-10-13T01:38:02;99603.41;;;11.59;76.96
69879;BME280;57161;43.136;24.706;2023-10-13T01:40:28;99625.44;;;11.76;77.08
69879;BME280;57161;43.136;24.706;2023-10-13T01:42:58;99629.00;;;11.77;76.79
69879;BME280;57161;43.136;24.706;2023-10-13T01:45:24;99623.94;;;11.75;76.82
69879;BME280;57161;43.136;24.706;2023-10-13T01:47:57;99621.78;;;11.68;77.23
69879;BME280;57161;43.136;24.706;2023-10-13T01:50:22;99634.81;;;11.65;77.47
69879;BME280;57161;43.136;24.706;2023-10-13T01:52:55;99613.59;;;11.70;77.16
69879;BME280;57161;43.136;24.706;2023-10-13T01:55:40;99623.28;;;11.69;77.42
69879;BME280;57161;43.136;24.706;2023-10-13T01:58:10;99625.13;;;11.66;77.28
69879;BME280;57161;43.136;24.706;2023-10-13T02:00:48;99623.50;;;11.71;77.27
69879;BME280;57161;43.136;24.706;2023-10-13T02:03:15;99611.81;;;11.59;77.71
69879;BME280;57161;43.136;24.706;2023-10-13T02:05:46;99613.19;;;11.66;77.50
69879;BME280;57161;43.136;24.706;2023-10-13T02:08:18;99613.50;;;11.76;77.41
69879;BME280;57161;43.136;24.706;2023-10-13T02:10:51;99607.69;;;11.73;77.48
69879;BME280;57161;43.136;24.706;2023-10-13T02:13:19;99602.72;;;11.66;77.84
69879;BME280;57161;43.136;24.706;2023-10-13T02:15:47;99604.69;;;11.71;77.30
69879;BME280;57161;43.136;24.706;2023-10-13T02:18:15;99601.22;;;11.65;77.25
69879;BME280;57161;43.136;24.706;2023-10-13T02:21:04;99611.78;;;11.72;77.39
69879;BME280;57161;43.136;24.706;2023-10-13T02:23:30;99610.38;;;11.79;77.33
69879;BME280;57161;43.136;24.706;2023-10-13T02:25:56;99599.19;;;11.66;77.42
69879;BME280;57161;43.136;24.706;2023-10-13T02:28:35;99616.84;;;11.74;77.21
69879;BME280;57161;43.136;24.706;2023-10-13T02:31:04;99599.31;;;11.60;77.32
69879;BME280;57161;43.136;24.706;2023-10-13T02:33:32;99598.16;;;11.56;77.72
69879;BME280;57161;43.136;24.706;2023-10-13T02:36:03;99610.16;;;11.64;77.45
69879;BME280;57161;43.136;24.706;2023-10-13T02:38:31;99614.19;;;11.55;77.72
69879;BME280;57161;43.136;24.706;2023-10-13T02:41:18;99608.47;;;11.61;77.35
69879;BME280;57161;43.136;24.706;2023-10-13T02:43:54;99619.53;;;11.53;77.58
69879;BME280;57161;43.136;24.706;2023-10-13T02:46:21;99610.72;;;11.49;77.84
69879;BME280;57161;43.136;24.706;2023-10-13T02:48:55;99612.56;;;11.47;77.84
69879;BME280;57161;43.136;24.706;2023-10-13T02:51:24;99609.44;;;11.37;78.09
69879;BME280;57161;43.136;24.706;2023-10-13T02:54:07;99618.59;;;11.37;78.15
69879;BME280;57161;43.136;24.706;2023-10-13T02:56:46;99634.63;;;11.37;78.52
69879;BME280;57161;43.136;24.706;2023-10-13T02:59:31;99632.59;;;11.37;78.45
69879;BME280;57161;43.136;24.706;2023-10-13T03:02:04;99638.84;;;11.30;78.72
69879;BME280;57161;43.136;24.706;2023-10-13T03:04:49;99631.84;;;11.37;78.42
69879;BME280;57161;43.136;24.706;2023-10-13T03:07:15;99634.97;;;11.33;78.41
69879;BME280;57161;43.136;24.706;2023-10-13T03:09:43;99618.94;;;11.21;78.55
69879;BME280;57161;43.136;24.706;2023-10-13T03:12:16;99631.19;;;11.31;78.51
69879;BME280;57161;43.136;24.706;2023-10-13T03:14:42;99627.88;;;11.19;78.48
69879;BME280;57161;43.136;24.706;2023-10-13T03:17:13;99629.81;;;11.24;78.47
69879;BME280;57161;43.136;24.706;2023-10-13T03:19:48;99619.81;;;11.16;78.85
69879;BME280;57161;43.136;24.706;2023-10-13T03:22:17;99631.63;;;11.22;78.70
69879;BME280;57161;43.136;24.706;2023-10-13T03:24:44;99628.31;;;11.23;78.96
69879;BME280;57161;43.136;24.706;2023-10-13T03:27:17;99633.16;;;11.23;78.86
69879;BME280;57161;43.136;24.706;2023-10-13T03:29:45;99625.28;;;11.21;78.82
69879;BME280;57161;43.136;24.706;2023-10-13T03:32:15;99611.94;;;11.14;78.79
69879;BME280;57161;43.136;24.706;2023-10-13T03:34:45;99627.88;;;11.19;78.61
69879;BME280;57161;43.136;24.706;2023-10-13T03:37:26;99616.03;;;11.13;78.93
69879;BME280;57161;43.136;24.706;2023-10-13T03:40:05;99623.34;;;11.16;78.88
69879;BME280;57161;43.136;24.706;2023-10-13T03:42:55;99614.13;;;11.08;78.67
69879;BME280;57161;43.136;24.706;2023-10-13T03:45:40;99611.41;;;11.16;78.87
69879;BME280;57161;43.136;24.706;2023-10-13T03:48:13;99611.31;;;11.08;79.20
69879;BME280;57161;43.136;24.706;2023-10-13T03:50:48;99602.91;;;10.95;79.64
69879;BME280;57161;43.136;24.706;2023-10-13T03:53:27;99588.81;;;11.00;79.50
69879;BME280;57161;43.136;24.706;2023-10-13T03:55:56;99607.13;;;11.15;79.57
69879;BME280;57161;43.136;24.706;2023-10-13T03:58:38;99605.19;;;11.23;79.10
69879;BME280;57161;43.136;24.706;2023-10-13T04:01:13;99592.47;;;11.22;79.03
69879;BME280;57161;43.136;24.706;2023-10-13T04:03:43;99590.66;;;11.24;79.12
69879;BME280;57161;43.136;24.706;2023-10-13T04:06:28;99587.41;;;11.20;79.31
69879;BME280;57161;43.136;24.706;2023-10-13T04:09:19;99573.75;;;11.17;78.96
69879;BME280;57161;43.136;24.706;2023-10-13T04:12:04;99593.22;;;11.22;79.04
69879;BME280;57161;43.136;24.706;2023-10-13T04:14:38;99576.34;;;11.15;78.67
69879;BME280;57161;43.136;24.706;2023-10-13T04:17:23;99593.88;;;11.15;78.78
69879;BME280;57161;43.136;24.706;2023-10-13T04:19:52;99598.72;;;11.15;78.44
69879;BME280;57161;43.136;24.706;2023-10-13T04:22:42;99599.06;;;11.11;78.72
69879;BME280;57161;43.136;24.706;2023-10-13T04:25:18;99592.91;;;10.99;79.14
69879;BME280;57161;43.136;24.706;2023-10-13T04:28:15;99592.91;;;10.99;79.44
69879;BME280;57161;43.136;24.706;2023-10-13T04:31:00;99592.69;;;10.97;79.04
69879;BME280;57161;43.136;24.706;2023-10-13T04:33:37;99604.63;;;10.98;79.42
69879;BME280;57161;43.136;24.706;2023-10-13T04:36:21;99584.63;;;10.80;79.83
69879;BME280;57161;43.136;24.706;2023-10-13T04:38:54;99615.28;;;10.99;79.69
69879;BME280;57161;43.136;24.706;2023-10-13T04:41:33;99607.75;;;10.94;79.80
69879;BME280;57161;43.136;24.706;2023-10-13T04:44:11;99604.22;;;10.94;79.44
69879;BME280;57161;43.136;24.706;2023-10-13T04:46:56;99627.75;;;10.98;79.61
69879;BME280;57161;43.136;24.706;2023-10-13T04:49:24;99616.78;;;10.87;79.63
69879;BME280;57161;43.136;24.706;2023-10-13T04:52:01;99626.13;;;11.03;79.62
69879;BME280;57161;43.136;24.706;2023-10-13T04:54:33;99632.59;;;10.98;79.73
69879;BME280;57161;43.136;24.706;2023-10-13T04:57:13;99628.84;;;10.95;79.67
69879;BME280;57161;43.136;24.706;2023-10-13T04:59:49;99633.91;;;11.10;79.17
69879;BME280;57161;43.136;24.706;2023-10-13T05:02:34;99641.63;;;11.17;78.91
69879;BME280;57161;43.136;24.706;2023-10-13T05:05:08;99642.50;;;11.25;78.60
69879;BME280;57161;43.136;24.706;2023-10-13T05:07:44;99653.25;;;11.34;77.83
69879;BME280;57161;43.136;24.706;2023-10-13T05:10:29;99644.09;;;11.34;78.07
69879;BME280;57161;43.136;24.706;2023-10-13T05:13:13;99666.69;;;11.49;77.66
69879;BME280;57161;43.136;24.706;2023-10-13T05:15:57;99671.88;;;11.58;77.39
69879;BME280;57161;43.136;24.706;2023-10-13T05:18:41;99678.31;;;11.66;77.01
69879;BME280;57161;43.136;24.706;2023-10-13T05:21:25;99681.22;;;11.74;76.19
69879;BME280;57161;43.136;24.706;2023-10-13T05:24:10;99680.13;;;11.77;75.91
69879;BME280;57161;43.136;24.706;2023-10-13T05:26:54;99689.50;;;11.80;75.85
69879;BME280;57161;43.136;24.706;2023-10-13T05:29:39;99693.47;;;11.84;75.63
69879;BME280;57161;43.136;24.706;2023-10-13T05:32:23;99697.69;;;11.91;75.32
69879;BME280;57161;43.136;24.706;2023-10-13T05:35:08;99696.06;;;11.95;75.05
69879;BME280;57161;43.136;24.706;2023-10-13T05:37:52;99687.31;;;11.99;74.81
69879;BME280;57161;43.136;24.706;2023-10-13T05:40:36;99688.59;;;12.11;74.66
69879;BME280;57161;43.136;24.706;2023-10-13T05:43:20;99698.25;;;12.23;74.07
69879;BME280;57161;43.136;24.706;2023-10-13T05:46:05;99710.69;;;12.36;73.81
69879;BME280;57161;43.136;24.706;2023-10-13T05:48:57;99707.56;;;12.39;73.52
69879;BME280;57161;43.136;24.706;2023-10-13T05:51:29;99704.63;;;12.45;73.59
69879;BME280;57161;43.136;24.706;2023-10-13T05:54:01;99706.09;;;12.59;73.36
69879;BME280;57161;43.136;24.706;2023-10-13T05:56:53;99705.19;;;12.64;73.10
69879;BME280;57161;43.136;24.706;2023-10-13T05:59:38;99726.34;;;12.86;72.67
69879;BME280;57161;43.136;24.706;2023-10-13T06:02:23;99717.84;;;12.99;72.06
69879;BME280;57161;43.136;24.706;2023-10-13T06:05:08;99720.56;;;13.12;71.91
69879;BME280;57161;43.136;24.706;2023-10-13T06:07:53;99716.78;;;13.31;71.18
69879;BME280;57161;43.136;24.706;2023-10-13T06:10:38;99709.94;;;13.39;70.83
69879;BME280;57161;43.136;24.706;2023-10-13T06:13:22;99727.53;;;13.68;69.99
69879;BME280;57161;43.136;24.706;2023-10-13T06:16:10;99719.69;;;13.74;69.55
69879;BME280;57161;43.136;24.706;2023-10-13T06:18:55;99727.31;;;14.02;69.15
69879;BME280;57161;43.136;24.706;2023-10-13T06:21:40;99734.13;;;14.22;68.58
69879;BME280;57161;43.136;24.706;2023-10-13T06:24:24;99734.19;;;14.37;68.04
69879;BME280;57161;43.136;24.706;2023-10-13T06:27:09;99727.69;;;14.50;67.68
69879;BME280;57161;43.136;24.706;2023-10-13T06:29:53;99739.34;;;14.77;66.96
69879;BME280;57161;43.136;24.706;2023-10-13T06:32:19;99731.66;;;14.78;66.53
69879;BME280;57161;43.136;24.706;2023-10-13T06:34:45;99738.97;;;14.96;66.16
69879;BME280;57161;43.136;24.706;2023-10-13T06:37:14;99750.63;;;15.08;66.14
69879;BME280;57161;43.136;24.706;2023-10-13T06:39:51;99750.44;;;15.28;65.80
69879;BME280;57161;43.136;24.706;2023-10-13T06:42:16;99747.41;;;15.49;64.81
69879;BME280;57161;43.136;24.706;2023-10-13T06:44:47;99743.66;;;15.54;64.54
69879;BME280;57161;43.136;24.706;2023-10-13T06:47:13;99734.63;;;15.71;64.20
69879;BME280;57161;43.136;24.706;2023-10-13T06:49:39;99737.22;;;15.84;63.59
69879;BME280;57161;43.136;24.706;2023-10-13T06:52:08;99737.13;;;16.07;63.12
69879;BME280;57161;43.136;24.706;2023-10-13T06:54:34;99719.47;;;16.14;62.48
69879;BME280;57161;43.136;24.706;2023-10-13T06:57:00;99731.19;;;16.36;61.99
69879;BME280;57161;43.136;24.706;2023-10-13T06:59:29;99721.56;;;16.46;61.14
69879;BME280;57161;43.136;24.706;2023-10-13T07:01:58;99688.66;;;16.41;61.15
69879;BME280;57161;43.136;24.706;2023-10-13T07:04:28;99715.38;;;16.73;60.33
69879;BME280;57161;43.136;24.706;2023-10-13T07:06:53;99714.19;;;16.84;60.04
69879;BME280;57161;43.136;24.706;2023-10-13T07:09:20;99723.84;;;16.98;59.90
69879;BME280;57161;43.136;24.706;2023-10-13T07:12:01;99715.44;;;17.15;59.89
69879;BME280;57161;43.136;24.706;2023-10-13T07:14:28;99724.97;;;17.45;59.07
69879;BME280;57161;43.136;24.706;2023-10-13T07:17:01;99723.41;;;17.68;58.43
69879;BME280;57161;43.136;24.706;2023-10-13T07:19:28;99718.59;;;17.79;57.82
69879;BME280;57161;43.136;24.706;2023-10-13T07:21:57;99723.81;;;17.99;57.09
69879;BME280;57161;43.136;24.706;2023-10-13T07:24:47;99725.28;;;18.18;56.82
69879;BME280;57161;43.136;24.706;2023-10-13T07:27:21;99729.72;;;18.38;56.09
69879;BME280;57161;43.136;24.706;2023-10-13T07:29:51;99724.94;;;18.58;55.96
69879;BME280;57161;43.136;24.706;2023-10-13T07:32:36;99717.75;;;18.74;55.53
69879;BME280;57161;43.136;24.706;2023-10-13T07:35:02;99716.47;;;18.95;54.86
69879;BME280;57161;43.136;24.706;2023-10-13T07:37:37;99719.97;;;19.12;54.25
69879;BME280;57161;43.136;24.706;2023-10-13T07:40:08;99730.31;;;19.37;53.84
69879;BME280;57161;43.136;24.706;2023-10-13T07:42:53;99715.16;;;19.61;53.25
69879;BME280;57161;43.136;24.706;2023-10-13T07:45:36;99719.03;;;19.75;52.78
69879;BME280;57161;43.136;24.706;2023-10-13T07:48:06;99712.19;;;19.78;52.53
69879;BME280;57161;43.136;24.706;2023-10-13T07:50:44;99714.25;;;20.07;51.84
69879;BME280;57161;43.136;24.706;2023-10-13T07:53:11;99729.31;;;20.19;51.20
69879;BME280;57161;43.136;24.706;2023-10-13T07:55:50;99727.94;;;20.39;50.27
69879;BME280;57161;43.136;24.706;2023-10-13T07:58:26;99716.88;;;20.53;49.87
69879;BME280;57161;43.136;24.706;2023-10-13T08:00:52;99713.38;;;20.74;49.37
69879;BME280;57161;43.136;24.706;2023-10-13T08:03:23;99710.56;;;20.95;47.67
69879;BME280;57161;43.136;24.706;2023-10-13T08:06:08;99709.06;;;21.04;47.20
69879;BME280;57161;43.136;24.706;2023-10-13T08:08:36;99720.00;;;21.29;46.46
69879;BME280;57161;43.136;24.706;2023-10-13T08:11:05;99710.28;;;21.32;45.89
69879;BME280;57161;43.136;24.706;2023-10-13T08:13:43;99712.63;;;21.57;44.29
69879;BME280;57161;43.136;24.706;2023-10-13T08:16:14;99716.63;;;21.64;44.55
69879;BME280;57161;43.136;24.706;2023-10-13T08:18:52;99718.31;;;21.78;43.90
69879;BME280;57161;43.136;24.706;2023-10-13T08:21:21;99724.44;;;21.96;43.76
69879;BME280;57161;43.136;24.706;2023-10-13T08:23:50;99726.28;;;22.13;43.46
69879;BME280;57161;43.136;24.706;2023-10-13T08:26:23;99722.34;;;22.18;43.83
69879;BME280;57161;43.136;24.706;2023-10-13T08:28:56;99714.22;;;22.36;42.91
69879;BME280;57161;43.136;24.706;2023-10-13T08:31:22;99712.53;;;22.54;43.90
69879;BME280;57161;43.136;24.706;2023-10-13T08:33:50;99719.34;;;22.72;42.46
69879;BME280;57161;43.136;24.706;2023-10-13T08:36:23;99717.38;;;22.75;42.79
69879;BME280;57161;43.136;24.706;2023-10-13T08:38:56;99719.75;;;22.90;43.50
69879;BME280;57161;43.136;24.706;2023-10-13T08:41:23;99713.69;;;22.96;42.21
69879;BME280;57161;43.136;24.706;2023-10-13T08:43:50;99706.25;;;23.02;41.96
69879;BME280;57161;43.136;24.706;2023-10-13T08:46:16;99712.31;;;23.20;41.87
69879;BME280;57161;43.136;24.706;2023-10-13T08:49:05;99702.88;;;23.29;41.34
69879;BME280;57161;43.136;24.706;2023-10-13T08:51:44;99715.25;;;23.46;41.43
69879;BME280;57161;43.136;24.706;2023-10-13T08:54:15;99714.75;;;23.61;41.09
69879;BME280;57161;43.136;24.706;2023-10-13T08:57:00;99713.06;;;23.81;40.53
69879;BME280;57161;43.136;24.706;2023-10-13T08:59:45;99713.81;;;24.07;38.84
69879;BME280;57161;43.136;24.706;2023-10-13T09:02:21;99702.34;;;24.19;36.90
69879;BME280;57161;43.136;24.706;2023-10-13T09:05:07;99715.38;;;24.47;36.33
69879;BME280;57161;43.136;24.706;2023-10-13T09:07:44;99718.06;;;24.71;35.74
69879;BME280;57161;43.136;24.706;2023-10-13T09:10:22;99708.75;;;24.70;35.54
69879;BME280;57161;43.136;24.706;2023-10-13T09:13:10;99709.53;;;24.98;36.25
69879;BME280;57161;43.136;24.706;2023-10-13T09:15:44;99705.88;;;25.23;35.01
69879;BME280;57161;43.136;24.706;2023-10-13T09:18:27;99691.66;;;25.39;34.70
69879;BME280;57161;43.136;24.706;2023-10-13T09:21:12;99695.72;;;25.63;34.01
69879;BME280;57161;43.136;24.706;2023-10-13T09:23:58;99698.78;;;25.81;34.06
69879;BME280;57161;43.136;24.706;2023-10-13T09:26:42;99684.28;;;26.07;34.51
69879;BME280;57161;43.136;24.706;2023-10-13T09:29:19;99694.84;;;26.33;33.15
69879;BME280;57161;43.136;24.706;2023-10-13T09:31:47;99688.28;;;26.31;33.33
69879;BME280;57161;43.136;24.706;2023-10-13T09:34:22;99706.06;;;26.43;33.32
69879;BME280;57161;43.136;24.706;2023-10-13T09:36:57;99692.41;;;26.42;32.71
69879;BME280;57161;43.136;24.706;2023-10-13T09:39:26;99698.13;;;26.42;32.92
69879;BME280;57161;43.136;24.706;2023-10-13T09:41:57;99694.84;;;26.33;32.48
69879;BME280;57161;43.136;24.706;2023-10-13T09:44:22;99684.69;;;26.30;33.25
69879;BME280;57161;43.136;24.706;2023-10-13T09:46:48;99698.13;;;26.42;32.68
69879;BME280;57161;43.136;24.706;2023-10-13T09:49:19;99689.09;;;26.18;32.83
69879;BME280;57161;43.136;24.706;2023-10-13T09:52:03;99676.13;;;26.01;33.08
69879;BME280;57161;43.136;24.706;2023-10-13T09:54:38;99692.47;;;25.98;33.39
69879;BME280;57161;43.136;24.706;2023-10-13T09:57:18;99692.38;;;25.96;33.27
69879;BME280;57161;43.136;24.706;2023-10-13T09:59:52;99695.97;;;25.97;33.52
69879;BME280;57161;43.136;24.706;2023-10-13T10:02:21;99691.72;;;25.98;33.70
69879;BME280;57161;43.136;24.706;2023-10-13T10:04:54;99677.41;;;25.98;33.69
69879;BME280;57161;43.136;24.706;2023-10-13T10:07:43;99684.81;;;26.03;33.36
69879;BME280;57161;43.136;24.706;2023-10-13T10:10:22;99694.03;;;26.01;33.53
69879;BME280;57161;43.136;24.706;2023-10-13T10:12:57;99669.22;;;26.06;33.23
69879;BME280;57161;43.136;24.706;2023-10-13T10:15:35;99674.66;;;26.00;32.97
69879;BME280;57161;43.136;24.706;2023-10-13T10:18:22;99681.66;;;25.97;33.05
69879;BME280;57161;43.136;24.706;2023-10-13T10:20:49;99671.31;;;25.90;33.58
69879;BME280;57161;43.136;24.706;2023-10-13T10:23:29;99675.00;;;25.92;33.54
69879;BME280;57161;43.136;24.706;2023-10-13T10:26:09;99667.16;;;25.93;33.18
69879;BME280;57161;43.136;24.706;2023-10-13T10:28:40;99673.81;;;25.97;33.72
69879;BME280;57161;43.136;24.706;2023-10-13T10:31:08;99676.38;;;25.91;33.50
69879;BME280;57161;43.136;24.706;2023-10-13T10:33:45;99678.50;;;25.91;33.32
69879;BME280;57161;43.136;24.706;2023-10-13T10:36:11;99674.34;;;25.94;33.47
69879;BME280;57161;43.136;24.706;2023-10-13T10:38:56;99673.34;;;25.87;32.73
69879;BME280;57161;43.136;24.706;2023-10-13T10:41:26;99658.34;;;25.73;33.37
69879;BME280;57161;43.136;24.706;2023-10-13T10:44:13;99665.53;;;25.74;33.43
69879;BME280;57161;43.136;24.706;2023-10-13T10:46:42;99669.63;;;25.85;32.79
69879;BME280;57161;43.136;24.706;2023-10-13T10:49:20;99655.44;;;26.02;31.99
69879;BME280;57161;43.136;24.706;2023-10-13T10:51:57;99666.81;;;26.16;31.79
69879;BME280;57161;43.136;24.706;2023-10-13T10:54:26;99644.66;;;26.17;31.37
69879;BME280;57161;43.136;24.706;2023-10-13T10:56:56;99648.09;;;26.29;31.75
69879;BME280;57161;43.136;24.706;2023-10-13T10:59:25;99659.03;;;26.48;32.00
69879;BME280;57161;43.136;24.706;2023-10-13T11:01:54;99664.59;;;26.60;31.39
69879;BME280;57161;43.136;24.706;2023-10-13T11:04:20;99650.53;;;26.66;31.92
69879;BME280;57161;43.136;24.706;2023-10-13T11:06:57;99652.47;;;26.77;31.91
69879;BME280;57161;43.136;24.706;2023-10-13T11:09:30;99655.88;;;26.89;31.35
69879;BME280;57161;43.136;24.706;2023-10-13T11:15:04;99641.22;;;27.15;31.48
69879;BME280;57161;43.136;24.706;2023-10-13T11:17:37;99636.91;;;27.32;30.95
69879;BME280;57161;43.136;24.706;2023-10-13T11:20:29;99642.00;;;27.67;30.39
69879;BME280;57161;43.136;24.706;2023-10-13T11:23:13;99630.75;;;27.73;30.21
69879;BME280;57161;43.136;24.706;2023-10-13T11:25:39;99642.16;;;27.71;30.51
69879;BME280;57161;43.136;24.706;2023-10-13T11:28:11;99632.38;;;27.60;30.33
69879;BME280;57161;43.136;24.706;2023-10-13T11:30:43;99629.34;;;27.56;30.10
69879;BME280;57161;43.136;24.706;2023-10-13T11:33:15;99626.13;;;27.48;30.14
69879;BME280;57161;43.136;24.706;2023-10-13T11:35:45;99619.38;;;27.24;29.83
69879;BME280;57161;43.136;24.706;2023-10-13T11:38:20;99626.44;;;27.20;30.24
69879;BME280;57161;43.136;24.706;2023-10-13T11:43:36;99625.94;;;27.26;29.85
69879;BME280;57161;43.136;24.706;2023-10-13T11:46:10;99629.94;;;27.19;29.99
69879;BME280;57161;43.136;24.706;2023-10-13T11:48:36;99617.31;;;27.26;29.68
69879;BME280;57161;43.136;24.706;2023-10-13T11:51:03;99620.78;;;27.40;29.51
69879;BME280;57161;43.136;24.706;2023-10-13T11:53:35;99610.72;;;27.39;29.30
69879;BME280;57161;43.136;24.706;2023-10-13T11:56:04;99606.22;;;27.52;28.75
69879;BME280;57161;43.136;24.706;2023-10-13T11:58:37;99625.03;;;27.73;29.81
69879;BME280;57161;43.136;24.706;2023-10-13T12:01:03;99614.25;;;27.91;28.85
69879;BME280;57161;43.136;24.706;2023-10-13T12:03:48;99619.00;;;28.02;28.73
69879;BME280;57161;43.136;24.706;2023-10-13T12:06:34;99609.47;;;28.16;27.56
69879;BME280;57161;43.136;24.706;2023-10-13T12:09:04;99615.63;;;28.08;27.95
69879;BME280;57161;43.136;24.706;2023-10-13T12:11:45;99618.03;;;27.96;28.51
69879;BME280;57161;43.136;24.706;2023-10-13T12:14:12;99626.56;;;27.94;28.26
69879;BME280;57161;43.136;24.706;2023-10-13T12:16:55;99618.31;;;27.84;28.87
69879;BME280;57161;43.136;24.706;2023-10-13T12:19:23;99618.03;;;27.78;29.50
69879;BME280;57161;43.136;24.706;2023-10-13T12:21:51;99618.13;;;27.80;29.58
69879;BME280;57161;43.136;24.706;2023-10-13T12:24:24;99621.72;;;27.80;29.56
69879;BME280;57161;43.136;24.706;2023-10-13T12:29:28;99626.47;;;27.92;29.34
69879;BME280;57161;43.136;24.706;2023-10-13T12:31:57;99618.09;;;27.98;29.65
69879;BME280;57161;43.136;24.706;2023-10-13T12:34:37;99612.56;;;27.84;29.54
69879;BME280;57161;43.136;24.706;2023-10-13T12:37:21;99599.25;;;27.57;29.73
69879;BME280;57161;43.136;24.706;2023-10-13T12:40:07;99613.97;;;27.49;29.63
69879;BME280;57161;43.136;24.706;2023-10-13T12:42:51;99610.13;;;27.43;29.59
69879;BME280;57161;43.136;24.706;2023-10-13T12:45:43;99608.00;;;27.43;30.16
69879;BME280;57161;43.136;24.706;2023-10-13T12:48:28;99592.50;;;27.33;30.21
69879;BME280;57161;43.136;24.706;2023-10-13T12:51:11;99594.97;;;27.40;30.43
69879;BME280;57161;43.136;24.706;2023-10-13T12:54:06;99600.22;;;27.46;29.99
69879;BME280;57161;43.136;24.706;2023-10-13T12:56:40;99601.38;;;27.39;30.15
69879;BME280;57161;43.136;24.706;2023-10-13T12:59:13;99608.41;;;27.36;30.23
69879;BME280;57161;43.136;24.706;2023-10-13T13:01:40;99608.16;;;27.30;30.25
69879;BME280;57161;43.136;24.706;2023-10-13T13:04:11;99602.66;;;27.18;29.96
69879;BME280;57161;43.136;24.706;2023-10-13T13:06:43;99601.91;;;27.17;30.25
69879;BME280;57161;43.136;24.706;2023-10-13T13:09:09;99600.91;;;27.11;30.42
69879;BME280;57161;43.136;24.706;2023-10-13T13:11:35;99604.91;;;27.04;30.31
69879;BME280;57161;43.136;24.706;2023-10-13T13:14:14;99606.47;;;27.07;30.19
69879;BME280;57161;43.136;24.706;2023-10-13T13:16:39;99592.78;;;27.05;30.63
69879;BME280;57161;43.136;24.706;2023-10-13T13:19:05;99595.53;;;27.19;30.26
69879;BME280;57161;43.136;24.706;2023-10-13T13:21:39;99595.28;;;27.31;30.23
69879;BME280;57161;43.136;24.706;2023-10-13T13:24:05;99584.31;;;27.25;29.98
69879;BME280;57161;43.136;24.706;2023-10-13T13:26:39;99588.88;;;27.14;30.32
69879;BME280;57161;43.136;24.706;2023-10-13T13:29:07;99596.94;;;27.18;30.10
69879;BME280;57161;43.136;24.706;2023-10-13T13:31:36;99608.13;;;27.12;30.19
69879;BME280;57161;43.136;24.706;2023-10-13T13:34:07;99589.09;;;27.03;30.57
69879;BME280;57161;43.136;24.706;2023-10-13T13:36:34;99601.22;;;27.01;30.59
69879;BME280;57161;43.136;24.706;2023-10-13T13:39:00;99602.22;;;26.92;30.36